Time;durP1;ratioP1;P1;durP2;ratioP2;P2;SDS_P1;SDS_P2;PMS_P1;PMS_P2;Temp;Humidity;BMP_temperature;BMP_pressure;BME280_temperature;BME280_humidity;BME280_pressure;Samples;Min_cycle;Max_cycle;Signal;HPM_P1;HPM_P2
2021/12/02 00:01:18;;;;;;;5.60;0.88;;;;;;;;;;4968241;28;20120;-84
2021/12/02 00:03:45;;;;;;;5.22;1.38;;;;;;;;;;4965128;28;20597;-84
2021/12/02 00:06:13;;;;;;;3.97;1.30;;;;;;;;;;4955806;28;20197;-83
2021/12/02 00:08:39;;;;;;;7.07;1.35;;;;;;;;;;4968829;28;20101;-85
2021/12/02 00:11:06;;;;;;;8.85;0.98;;;;;;;;;;4976139;28;20026;-84
2021/12/02 00:13:56;;;;;;;8.50;1.33;;;;;;;;;;4982689;28;20027;-83
2021/12/02 00:16:29;;;;;;;6.25;1.48;;;;;;;;;;4976993;28;20051;-84
2021/12/02 00:21:45;;;;;;;8.38;1.00;;;;;;;;;;4980302;28;20072;-85
2021/12/02 00:24:14;;;;;;;14.90;2.15;;;;;;;;;;4959337;28;20065;-85
2021/12/02 00:26:40;;;;;;;6.93;1.25;;;;;;;;;;4982552;28;20466;-84
2021/12/02 00:29:07;;;;;;;14.57;1.20;;;;;;;;;;4961084;28;20042;-84
2021/12/02 00:31:36;;;;;;;10.73;1.45;;;;;;;;;;4979378;28;20043;-85
2021/12/02 00:34:11;;;;;;;5.85;1.52;;;;;;;;;;4974866;28;20030;-84
2021/12/02 00:36:38;;;;;;;7.75;1.95;;;;;;;;;;4978498;28;20076;-84
2021/12/02 00:39:08;;;;;;;6.82;1.50;;;;;;;;;;4960459;28;20038;-83
2021/12/02 00:41:35;;;;;;;11.75;1.58;;;;;;;;;;4977321;28;20498;-84
2021/12/02 00:44:01;;;;;;;11.25;2.08;;;;;;;;;;4968335;28;20726;-86
2021/12/02 00:46:31;;;;;;;13.77;2.00;;;;;;;;;;4961769;28;20038;-83
2021/12/02 00:49:04;;;;;;;13.25;1.73;;;;;;;;;;4973280;28;20046;-83
2021/12/02 00:51:35;;;;;;;5.38;1.20;;;;;;;;;;4960827;28;20505;-84
2021/12/02 00:54:09;;;;;;;7.90;1.83;;;;;;;;;;4976905;28;20036;-85
2021/12/02 00:56:35;;;;;;;9.60;1.50;;;;;;;;;;4961351;28;20022;-84
2021/12/02 00:59:02;;;;;;;12.48;2.63;;;;;;;;;;4956848;28;20034;-83
2021/12/02 01:01:34;;;;;;;3.55;1.17;;;;;;;;;;4956760;28;20027;-84
2021/12/02 01:04:01;;;;;;;19.63;2.00;;;;;;;;;;4965808;28;20030;-84
2021/12/02 01:06:27;;;;;;;10.63;1.60;;;;;;;;;;4959625;28;20502;-86
2021/12/02 01:08:54;;;;;;;5.25;1.00;;;;;;;;;;4959088;28;20089;-83
2021/12/02 01:11:20;;;;;;;11.45;1.67;;;;;;;;;;4968631;28;20018;-83
2021/12/02 01:13:47;;;;;;;6.65;1.45;;;;;;;;;;4980432;28;20475;-86
2021/12/02 01:16:14;;;;;;;4.05;1.27;;;;;;;;;;4954837;28;20570;-83
2021/12/02 01:18:40;;;;;;;3.10;0.82;;;;;;;;;;4979575;28;20109;-85
2021/12/02 01:21:07;;;;;;;4.38;0.55;;;;;;;;;;4965220;28;20460;-85
2021/12/02 01:23:34;;;;;;;11.18;0.85;;;;;;;;;;4961298;28;20432;-84
2021/12/02 01:26:05;;;;;;;3.17;1.02;;;;;;;;;;4959371;28;20031;-84
2021/12/02 01:28:31;;;;;;;0.63;0.20;;;;;;;;;;4976363;28;20359;-84
2021/12/02 01:30:58;;;;;;;3.42;0.93;;;;;;;;;;4973103;28;20363;-84
2021/12/02 01:33:26;;;;;;;4.75;1.02;;;;;;;;;;4961846;28;20771;-84
2021/12/02 01:35:56;;;;;;;1.40;0.32;;;;;;;;;;4949135;28;20030;-83
2021/12/02 01:38:24;;;;;;;5.05;0.52;;;;;;;;;;4964395;28;20133;-83
2021/12/02 01:40:51;;;;;;;4.05;0.80;;;;;;;;;;4969948;28;20045;-84
2021/12/02 01:43:18;;;;;;;6.50;1.38;;;;;;;;;;4975374;28;20629;-83
2021/12/02 01:45:44;;;;;;;7.75;0.93;;;;;;;;;;4971716;28;20030;-85
2021/12/02 01:48:12;;;;;;;11.15;1.08;;;;;;;;;;4967016;28;20347;-83
2021/12/02 01:50:45;;;;;;;6.63;0.90;;;;;;;;;;4973266;28;20122;-83
2021/12/02 01:53:15;;;;;;;3.03;0.55;;;;;;;;;;4960665;28;20038;-83
2021/12/02 01:55:43;;;;;;;4.75;0.57;;;;;;;;;;4959710;28;20022;-84
2021/12/02 01:58:15;;;;;;;6.95;1.02;;;;;;;;;;4960991;28;20506;-83
2021/12/02 02:00:44;;;;;;;2.25;0.70;;;;;;;;;;4972354;28;20069;-84
2021/12/02 02:03:15;;;;;;;21.48;1.40;;;;;;;;;;4955800;28;20129;-86
2021/12/02 02:05:42;;;;;;;4.82;0.75;;;;;;;;;;4974476;28;20089;-85
2021/12/02 02:08:11;;;;;;;5.50;0.80;;;;;;;;;;4967500;28;20121;-83
2021/12/02 02:10:40;;;;;;;2.10;0.88;;;;;;;;;;4974160;28;20037;-83
2021/12/02 02:13:09;;;;;;;9.13;0.90;;;;;;;;;;4970571;28;20330;-83
2021/12/02 02:15:35;;;;;;;11.32;1.00;;;;;;;;;;4978520;28;20090;-83
2021/12/02 02:18:13;;;;;;;5.50;0.88;;;;;;;;;;4971180;28;21177;-83
2021/12/02 02:21:10;;;;;;;7.28;0.82;;;;;;;;;;4978223;28;20031;-84
2021/12/02 02:23:38;;;;;;;;;;;;;;;;;;4961511;28;20042;-84
2021/12/02 02:26:05;;;;;;;4.75;1.10;;;;;;;;;;4971859;28;19960;-86
2021/12/02 02:28:31;;;;;;;14.00;1.35;;;;;;;;;;4958937;28;20045;-83
2021/12/02 02:30:58;;;;;;;3.15;0.80;;;;;;;;;;4969359;28;20109;-84
2021/12/02 02:33:24;;;;;;;2.60;0.98;;;;;;;;;;4976988;28;20117;-84
2021/12/02 02:35:51;;;;;;;4.43;1.10;;;;;;;;;;4969747;28;20048;-83
2021/12/02 02:38:17;;;;;;;4.32;0.80;;;;;;;;;;4957736;28;20498;-83
2021/12/02 02:40:46;;;;;;;7.10;1.17;;;;;;;;;;4956521;28;20157;-83
2021/12/02 02:43:20;;;;;;;9.02;1.10;;;;;;;;;;4976789;28;20038;-84
2021/12/02 02:45:46;;;;;;;6.63;1.05;;;;;;;;;;4955316;28;20121;-83
2021/12/02 02:48:12;;;;;;;8.75;1.15;;;;;;;;;;4960317;28;20062;-84
2021/12/02 02:50:38;;;;;;;12.18;1.00;;;;;;;;;;4958749;28;20053;-83
2021/12/02 02:53:06;;;;;;;8.60;1.25;;;;;;;;;;4972183;28;20034;-84
2021/12/02 02:55:34;;;;;;;5.70;1.15;;;;;;;;;;4969773;28;20030;-84
2021/12/02 02:58:17;;;;;;;5.57;1.30;;;;;;;;;;4973860;28;20097;-84
2021/12/02 03:00:55;;;;;;;3.70;0.75;;;;;;;;;;4956184;28;20398;-83
2021/12/02 03:06:37;;;;;;;10.82;0.90;;;;;;;;;;4977333;28;20030;-84
2021/12/02 03:08:42;;;;;;;7.50;1.08;;;;;;;;;;4969006;28;20421;-83
2021/12/02 03:11:10;;;;;;;1.27;0.30;;;;;;;;;;4966593;28;20545;-83
2021/12/02 03:13:45;;;;;;;1.88;0.60;;;;;;;;;;4969939;28;20542;-83
2021/12/02 03:18:56;;;;;;;4.30;0.30;;;;;;;;;;4972158;28;20153;-83
2021/12/02 03:21:23;;;;;;;6.72;0.38;;;;;;;;;;4956869;28;20070;-83
2021/12/02 03:23:53;;;;;;;0.63;0.30;;;;;;;;;;4958952;28;20533;-83
2021/12/02 03:26:19;;;;;;;1.58;0.47;;;;;;;;;;4956520;28;20117;-85
2021/12/02 03:28:47;;;;;;;0.80;0.35;;;;;;;;;;4958669;28;20517;-84
2021/12/02 03:31:13;;;;;;;0.43;0.20;;;;;;;;;;4980360;28;20368;-84
2021/12/02 03:33:41;;;;;;;3.85;0.40;;;;;;;;;;4968715;28;20394;-84
2021/12/02 03:36:07;;;;;;;2.85;0.40;;;;;;;;;;4975995;28;20055;-84
2021/12/02 03:38:33;;;;;;;1.08;0.30;;;;;;;;;;4950243;28;20054;-84
2021/12/02 03:40:59;;;;;;;1.63;0.22;;;;;;;;;;4969045;28;20030;-83
2021/12/02 03:43:27;;;;;;;0.30;0.20;;;;;;;;;;4969117;28;20120;-84
2021/12/02 03:45:53;;;;;;;0.77;0.20;;;;;;;;;;4959871;28;20033;-84
2021/12/02 03:48:19;;;;;;;4.75;0.47;;;;;;;;;;4976922;28;20033;-86
2021/12/02 03:50:45;;;;;;;0.20;0.20;;;;;;;;;;4964915;28;20071;-84
2021/12/02 03:53:11;;;;;;;2.05;0.40;;;;;;;;;;4958425;28;20391;-84
2021/12/02 03:55:37;;;;;;;1.10;0.28;;;;;;;;;;4955722;28;20502;-85
2021/12/02 03:58:03;;;;;;;0.95;0.13;;;;;;;;;;4943674;28;20039;-84
2021/12/02 04:00:29;;;;;;;3.15;0.50;;;;;;;;;;4943352;28;20034;-84
2021/12/02 04:02:55;;;;;;;3.08;0.03;;;;;;;;;;4942328;28;20527;-84
2021/12/02 04:05:21;;;;;;;2.70;0.20;;;;;;;;;;4943832;28;20030;-86
2021/12/02 04:07:47;;;;;;;4.45;0.43;;;;;;;;;;4963467;28;20027;-84
2021/12/02 04:10:14;;;;;;;3.13;1.00;;;;;;;;;;4943820;28;20085;-84
2021/12/02 04:12:50;;;;;;;0.63;0.47;;;;;;;;;;4945797;28;20078;-85
2021/12/02 04:15:27;;;;;;;;;;;;;;;;;;4950061;28;20125;-84
2021/12/02 04:17:54;;;;;;;3.38;0.45;;;;;;;;;;4946541;28;20615;-86
2021/12/02 04:20:22;;;;;;;1.67;0.32;;;;;;;;;;4957959;28;20049;-84
2021/12/02 04:22:48;;;;;;;2.83;1.15;;;;;;;;;;4945259;28;20023;-83
2021/12/02 04:25:16;;;;;;;4.47;0.50;;;;;;;;;;4939242;28;20522;-84
2021/12/02 04:27:42;;;;;;;1.95;0.38;;;;;;;;;;4941136;28;20027;-84
2021/12/02 04:30:10;;;;;;;1.15;0.40;;;;;;;;;;4941283;28;20115;-85
2021/12/02 04:32:36;;;;;;;3.83;0.50;;;;;;;;;;4942260;28;20090;-83
2021/12/02 04:35:02;;;;;;;0.52;0.38;;;;;;;;;;4940645;28;20114;-84
2021/12/02 04:37:29;;;;;;;1.42;0.50;;;;;;;;;;4957677;28;20442;-83
2021/12/02 04:39:55;;;;;;;7.20;0.50;;;;;;;;;;4956712;28;20019;-82
2021/12/02 04:42:21;;;;;;;13.63;1.50;;;;;;;;;;4955593;28;20031;-82
2021/12/02 04:44:47;;;;;;;4.55;0.73;;;;;;;;;;4943642;28;20035;-82
2021/12/02 04:47:13;;;;;;;4.47;0.90;;;;;;;;;;4941752;28;20489;-81
2021/12/02 04:49:41;;;;;;;3.45;0.95;;;;;;;;;;4946873;28;20034;-82
2021/12/02 04:52:07;;;;;;;0.75;0.25;;;;;;;;;;4960570;28;20034;-82
2021/12/02 04:54:33;;;;;;;1.27;0.50;;;;;;;;;;4974750;28;20085;-81
2021/12/02 04:56:59;;;;;;;5.22;0.75;;;;;;;;;;4957938;28;20022;-82
2021/12/02 04:59:25;;;;;;;1.63;0.57;;;;;;;;;;4976162;28;20042;-83
2021/12/02 05:01:51;;;;;;;1.73;0.38;;;;;;;;;;4974520;28;20448;-82
2021/12/02 05:04:17;;;;;;;3.10;0.70;;;;;;;;;;4966955;28;20129;-82
2021/12/02 05:06:43;;;;;;;4.18;0.40;;;;;;;;;;4953906;28;20037;-82
2021/12/02 05:09:09;;;;;;;0.50;0.30;;;;;;;;;;4975661;28;20077;-83
2021/12/02 05:11:38;;;;;;;0.85;0.50;;;;;;;;;;4972371;28;20027;-83
2021/12/02 05:14:04;;;;;;;6.88;0.80;;;;;;;;;;4972113;28;20074;-83
2021/12/02 05:16:30;;;;;;;1.38;0.70;;;;;;;;;;4960675;28;20162;-83
2021/12/02 05:18:56;;;;;;;0.85;0.40;;;;;;;;;;4964654;28;20122;-84
2021/12/02 05:21:22;;;;;;;4.95;0.57;;;;;;;;;;4972765;28;20121;-84
2021/12/02 05:23:53;;;;;;;4.35;1.27;;;;;;;;;;4972832;28;20137;-83
2021/12/02 05:26:20;;;;;;;5.85;0.60;;;;;;;;;;4965149;28;20043;-83
2021/12/02 05:28:46;;;;;;;8.15;0.57;;;;;;;;;;4962579;28;20092;-84
2021/12/02 05:31:12;;;;;;;1.50;0.57;;;;;;;;;;4958604;28;20034;-83
2021/12/02 05:33:38;;;;;;;6.90;0.60;;;;;;;;;;4956063;28;20030;-83
2021/12/02 05:36:04;;;;;;;6.60;1.50;;;;;;;;;;4964510;28;20037;-83
2021/12/02 05:38:30;;;;;;;7.32;2.35;;;;;;;;;;4973438;28;20236;-83
2021/12/02 05:40:56;;;;;;;13.10;5.13;;;;;;;;;;4958414;28;20513;-82
2021/12/02 05:43:23;;;;;;;2.75;1.40;;;;;;;;;;4979128;28;20113;-84
2021/12/02 05:45:49;;;;;;;6.95;1.10;;;;;;;;;;4956325;28;20058;-83
2021/12/02 05:48:15;;;;;;;4.13;0.95;;;;;;;;;;4955786;28;20471;-82
2021/12/02 05:50:41;;;;;;;2.20;0.63;;;;;;;;;;4959894;28;20181;-83
2021/12/02 05:53:07;;;;;;;7.28;0.82;;;;;;;;;;4955405;28;20034;-84
2021/12/02 05:55:34;;;;;;;1.88;0.60;;;;;;;;;;4961329;28;20846;-83
2021/12/02 05:58:00;;;;;;;3.90;0.60;;;;;;;;;;4958723;28;20660;-84
2021/12/02 06:00:26;;;;;;;1.83;0.45;;;;;;;;;;4963671;28;20513;-82
2021/12/02 06:02:52;;;;;;;1.05;0.50;;;;;;;;;;4954195;28;20215;-82
2021/12/02 06:05:21;;;;;;;11.07;4.95;;;;;;;;;;4962466;28;20023;-83
2021/12/02 06:07:52;;;;;;;7.80;1.85;;;;;;;;;;4972102;28;20031;-83
2021/12/02 06:10:19;;;;;;;6.53;1.25;;;;;;;;;;4960495;28;20105;-82
2021/12/02 06:12:45;;;;;;;6.53;1.20;;;;;;;;;;4971058;28;20030;-81
2021/12/02 06:15:11;;;;;;;2.38;0.98;;;;;;;;;;4958176;28;20023;-82
2021/12/02 06:17:37;;;;;;;3.45;1.10;;;;;;;;;;4970886;28;20318;-81
2021/12/02 06:20:07;;;;;;;2.17;0.98;;;;;;;;;;4959528;28;20534;-81
2021/12/02 06:22:34;;;;;;;2.45;0.80;;;;;;;;;;4970175;28;20031;-82
2021/12/02 06:27:42;;;;;;;4.50;0.90;;;;;;;;;;4972770;28;20121;-81
2021/12/02 06:30:08;;;;;;;3.60;0.63;;;;;;;;;;4978442;28;20046;-82
2021/12/02 06:32:34;;;;;;;1.08;0.60;;;;;;;;;;4962039;28;21185;-83
2021/12/02 06:35:00;;;;;;;2.03;0.90;;;;;;;;;;4959285;28;20084;-84
2021/12/02 06:37:26;;;;;;;2.72;0.90;;;;;;;;;;4959602;28;20260;-82
2021/12/02 06:39:52;;;;;;;4.32;0.88;;;;;;;;;;4974554;28;20022;-84
2021/12/02 06:42:25;;;;;;;2.08;0.75;;;;;;;;;;4964572;28;20026;-83
2021/12/02 06:44:51;;;;;;;2.40;0.68;;;;;;;;;;4971318;28;20478;-82
2021/12/02 06:47:19;;;;;;;6.88;1.27;;;;;;;;;;4962887;28;20324;-82
2021/12/02 06:49:45;;;;;;;5.32;0.90;;;;;;;;;;4963899;28;20593;-81
2021/12/02 06:52:18;;;;;;;4.32;0.90;;;;;;;;;;4973680;28;20681;-82
2021/12/02 06:54:44;;;;;;;1.65;0.40;;;;;;;;;;4971545;28;20044;-81
2021/12/02 06:57:10;;;;;;;3.88;0.57;;;;;;;;;;4971543;28;20046;-82
2021/12/02 06:59:36;;;;;;;2.85;0.98;;;;;;;;;;4959164;28;20042;-82
2021/12/02 07:02:02;;;;;;;1.77;0.75;;;;;;;;;;4960758;28;20046;-82
2021/12/02 07:04:28;;;;;;;3.25;1.02;;;;;;;;;;4969486;28;20046;-82
2021/12/02 07:06:54;;;;;;;2.63;1.00;;;;;;;;;;4960377;28;20053;-82
2021/12/02 07:09:20;;;;;;;3.35;0.77;;;;;;;;;;4958685;28;20030;-83
2021/12/02 07:11:46;;;;;;;3.28;0.90;;;;;;;;;;4958419;28;20043;-82
2021/12/02 07:14:15;;;;;;;7.43;1.30;;;;;;;;;;4949975;28;20069;-85
2021/12/02 07:16:41;;;;;;;5.55;1.17;;;;;;;;;;4972949;28;20030;-82
2021/12/02 07:19:08;;;;;;;4.63;1.27;;;;;;;;;;4951970;28;20042;-84
2021/12/02 07:21:37;;;;;;;6.60;0.90;;;;;;;;;;4978169;28;20092;-82
2021/12/02 07:24:03;;;;;;;1.42;0.75;;;;;;;;;;4973690;28;20491;-83
2021/12/02 07:26:29;;;;;;;3.45;0.82;;;;;;;;;;4956981;28;20061;-84
2021/12/02 07:28:55;;;;;;;3.63;1.10;;;;;;;;;;4961858;28;20026;-86
2021/12/02 07:31:22;;;;;;;2.85;0.93;;;;;;;;;;4969612;28;20113;-83
2021/12/02 07:33:53;;;;;;;9.55;1.17;;;;;;;;;;4980919;28;20031;-84
2021/12/02 07:36:19;;;;;;;2.17;1.02;;;;;;;;;;4973129;28;20031;-84
2021/12/02 07:38:45;;;;;;;2.15;1.00;;;;;;;;;;4974556;28;20042;-83
2021/12/02 07:41:11;;;;;;;5.38;1.17;;;;;;;;;;4959174;28;20053;-82
2021/12/02 07:43:39;;;;;;;4.45;1.20;;;;;;;;;;4974715;28;20840;-86
2021/12/02 07:46:05;;;;;;;2.30;0.90;;;;;;;;;;4969898;28;20034;-84
2021/12/02 07:48:31;;;;;;;3.13;1.42;;;;;;;;;;4963705;28;20073;-83
2021/12/02 07:51:02;;;;;;;7.28;1.15;;;;;;;;;;4969687;28;20065;-86
2021/12/02 07:53:28;;;;;;;2.25;1.02;;;;;;;;;;4953504;28;20592;-84
2021/12/02 07:55:55;;;;;;;4.57;0.82;;;;;;;;;;4959434;28;20034;-86
2021/12/02 07:58:22;;;;;;;6.03;0.90;;;;;;;;;;4973564;28;20061;-86
2021/12/02 08:00:48;;;;;;;6.18;0.80;;;;;;;;;;4971152;28;20047;-85
2021/12/02 08:03:14;;;;;;;2.10;0.70;;;;;;;;;;4976897;28;20511;-85
2021/12/02 08:05:41;;;;;;;2.45;0.73;;;;;;;;;;4958551;28;20096;-86
2021/12/02 08:08:07;;;;;;;2.92;1.10;;;;;;;;;;4962290;28;20437;-84
2021/12/02 08:10:33;;;;;;;6.63;1.70;;;;;;;;;;4956602;28;20415;-84
2021/12/02 08:13:02;;;;;;;3.22;1.20;;;;;;;;;;4964749;28;20430;-84
2021/12/02 08:15:30;;;;;;;2.53;1.05;;;;;;;;;;4963056;28;20515;-84
2021/12/02 08:17:56;;;;;;;8.73;1.27;;;;;;;;;;4980936;28;20023;-85
2021/12/02 08:20:23;;;;;;;1.40;1.20;;;;;;;;;;4974731;28;20030;-85
2021/12/02 08:22:49;;;;;;;4.00;2.00;;;;;;;;;;4963468;28;20034;-86
2021/12/02 08:25:16;;;;;;;1.67;1.25;;;;;;;;;;4973218;28;20056;-85
2021/12/02 08:27:43;;;;;;;3.15;1.55;;;;;;;;;;4961736;28;20491;-85
2021/12/02 08:30:10;;;;;;;11.02;2.60;;;;;;;;;;4977386;28;20065;-85
2021/12/02 08:32:39;;;;;;;6.10;2.15;;;;;;;;;;4976058;28;20648;-84
2021/12/02 08:35:05;;;;;;;10.02;2.10;;;;;;;;;;4962286;28;20332;-84
2021/12/02 08:37:34;;;;;;;11.70;2.40;;;;;;;;;;4973557;28;20417;-84
2021/12/02 08:40:01;;;;;;;3.70;2.00;;;;;;;;;;4965289;28;20121;-84
2021/12/02 08:42:32;;;;;;;4.15;2.53;;;;;;;;;;4962312;28;20097;-85
2021/12/02 08:44:58;;;;;;;8.63;2.97;;;;;;;;;;4981140;28;20932;-85
2021/12/02 08:47:27;;;;;;;8.93;4.18;;;;;;;;;;4960776;28;20364;-85
2021/12/02 08:49:53;;;;;;;9.73;4.65;;;;;;;;;;4972510;28;20667;-84
2021/12/02 08:52:21;;;;;;;12.27;6.40;;;;;;;;;;4959681;28;20096;-85
2021/12/02 08:54:47;;;;;;;10.90;5.43;;;;;;;;;;4959839;28;20544;-87
2021/12/02 08:57:13;;;;;;;6.88;4.18;;;;;;;;;;4947013;28;20057;-86
2021/12/02 08:59:42;;;;;;;7.10;3.65;;;;;;;;;;4975515;28;20038;-85
2021/12/02 09:02:08;;;;;;;7.57;2.67;;;;;;;;;;4962673;28;20042;-85
2021/12/02 09:04:34;;;;;;;8.63;2.88;;;;;;;;;;4977180;28;20109;-85
2021/12/02 09:07:00;;;;;;;6.97;2.92;;;;;;;;;;4961082;28;20126;-85
2021/12/02 09:09:27;;;;;;;7.18;2.47;;;;;;;;;;4979207;28;20522;-86
2021/12/02 09:11:55;;;;;;;8.00;2.92;;;;;;;;;;4961579;28;20037;-84
2021/12/02 09:14:21;;;;;;;12.27;2.97;;;;;;;;;;4962714;28;20110;-84
2021/12/02 09:16:49;;;;;;;8.27;2.25;;;;;;;;;;4957501;28;20529;-83
2021/12/02 09:19:15;;;;;;;7.93;2.30;;;;;;;;;;4960456;28;20119;-84
2021/12/02 09:21:41;;;;;;;17.08;2.30;;;;;;;;;;4959499;28;20034;-84
2021/12/02 09:24:07;;;;;;;7.43;2.35;;;;;;;;;;4975172;28;20038;-85
2021/12/02 09:26:33;;;;;;;10.40;2.28;;;;;;;;;;4974103;28;20542;-84
2021/12/02 09:29:00;;;;;;;7.53;1.73;;;;;;;;;;4958815;28;20034;-85
2021/12/02 09:31:26;;;;;;;8.18;2.33;;;;;;;;;;4979489;28;20022;-84
2021/12/02 09:33:52;;;;;;;13.60;3.10;;;;;;;;;;4976163;28;20104;-84
2021/12/02 09:36:18;;;;;;;5.57;2.40;;;;;;;;;;4975680;28;20096;-87
2021/12/02 09:38:45;;;;;;;6.68;2.33;;;;;;;;;;4957240;28;20051;-85
2021/12/02 09:41:11;;;;;;;11.90;2.38;;;;;;;;;;4964265;28;20521;-90
2021/12/02 09:43:37;;;;;;;4.72;2.08;;;;;;;;;;4958326;28;20418;-85
2021/12/02 09:46:03;;;;;;;5.75;3.13;;;;;;;;;;4961430;28;20486;-85
2021/12/02 09:48:30;;;;;;;5.15;2.20;;;;;;;;;;4962966;28;20117;-85
2021/12/02 09:51:07;;;;;;;7.35;1.73;;;;;;;;;;4962728;28;20038;-84
2021/12/02 09:56:19;;;;;;;6.35;0.77;;;;;;;;;;4982482;28;20061;-83
2021/12/02 09:58:46;;;;;;;4.40;0.70;;;;;;;;;;4961234;28;20058;-85
2021/12/02 10:01:14;;;;;;;3.13;1.20;;;;;;;;;;4962663;28;20041;-84
2021/12/02 10:03:44;;;;;;;9.82;0.98;;;;;;;;;;4971185;28;20718;-84
2021/12/02 10:06:14;;;;;;;1.00;0.55;;;;;;;;;;4961748;28;20043;-84
2021/12/02 10:09:28;;;;;;;7.05;0.60;;;;;;;;;;4974406;28;20034;-84
2021/12/02 10:11:45;;;;;;;4.28;1.10;;;;;;;;;;4964134;28;20053;-85
2021/12/02 10:14:12;;;;;;;2.35;1.00;;;;;;;;;;4961656;28;20034;-86
2021/12/02 10:16:43;;;;;;;2.40;1.02;;;;;;;;;;4973840;28;20474;-85
2021/12/02 10:19:10;;;;;;;0.93;0.60;;;;;;;;;;4964632;28;20516;-85
2021/12/02 10:21:43;;;;;;;1.48;0.95;;;;;;;;;;4970567;28;20113;-84
2021/12/02 10:24:11;;;;;;;2.58;1.33;;;;;;;;;;4957551;28;20083;-85
2021/12/02 10:26:39;;;;;;;1.38;0.60;;;;;;;;;;4969323;28;20868;-84
2021/12/02 10:29:25;;;;;;;0.95;0.80;;;;;;;;;;4975481;28;20022;-84
2021/12/02 10:32:07;;;;;;;1.58;1.17;;;;;;;;;;4954164;28;20274;-84
2021/12/02 10:34:50;;;;;;;6.30;0.95;;;;;;;;;;4974508;28;20042;-84
2021/12/02 10:37:18;;;;;;;1.65;0.93;;;;;;;;;;4975537;28;20457;-84
2021/12/02 10:39:54;;;;;;;3.00;0.68;;;;;;;;;;4959686;28;20877;-85
2021/12/02 10:42:22;;;;;;;8.80;1.08;;;;;;;;;;4961701;28;20430;-83
2021/12/02 10:44:48;;;;;;;2.53;1.85;;;;;;;;;;4974631;28;20517;-84
2021/12/02 10:47:15;;;;;;;2.92;0.88;;;;;;;;;;4960177;28;20510;-84
2021/12/02 10:49:44;;;;;;;4.13;0.85;;;;;;;;;;4961293;28;20030;-84
2021/12/02 10:52:34;;;;;;;3.35;1.45;;;;;;;;;;4955391;28;20070;-84
2021/12/02 10:55:03;;;;;;;3.10;1.40;;;;;;;;;;4928487;28;20579;-88
2021/12/02 10:57:29;;;;;;;2.38;1.58;;;;;;;;;;4942448;28;20023;-85
2021/12/02 10:59:57;;;;;;;3.03;1.92;;;;;;;;;;4952850;28;20030;-86
2021/12/02 11:02:26;;;;;;;4.03;1.20;;;;;;;;;;4953532;28;20035;-86
2021/12/02 11:04:59;;;;;;;1.63;0.88;;;;;;;;;;4938033;28;20460;-85
2021/12/02 11:07:26;;;;;;;1.40;0.70;;;;;;;;;;4940807;28;20175;-88
2021/12/02 11:09:53;;;;;;;3.45;0.63;;;;;;;;;;4952115;28;20544;-86
2021/12/02 11:12:30;;;;;;;0.90;0.50;;;;;;;;;;4946947;28;20355;-89
2021/12/02 11:14:58;;;;;;;4.93;0.93;;;;;;;;;;4951203;28;20034;-88
2021/12/02 11:17:29;;;;;;;2.75;1.27;;;;;;;;;;4936027;28;20030;-86
2021/12/02 11:19:56;;;;;;;2.40;1.17;;;;;;;;;;4950465;28;20039;-86
2021/12/02 11:22:23;;;;;;;7.32;0.80;;;;;;;;;;4935436;28;20031;-85
2021/12/02 11:24:50;;;;;;;1.48;0.63;;;;;;;;;;4928020;28;20068;-86
2021/12/02 11:27:20;;;;;;;2.60;0.68;;;;;;;;;;4934930;28;20332;-84
2021/12/02 11:29:56;;;;;;;4.55;0.85;;;;;;;;;;4952307;28;20031;-85
2021/12/02 11:32:29;;;;;;;2.20;0.77;;;;;;;;;;4938856;28;20027;-85
2021/12/02 11:35:22;;;;;;;4.70;0.70;;;;;;;;;;4951294;28;20513;-85
2021/12/02 11:37:57;;;;;;;6.72;0.95;;;;;;;;;;4936042;28;20070;-85
2021/12/02 11:40:27;;;;;;;5.68;0.88;;;;;;;;;;4951190;28;20305;-85
2021/12/02 11:42:54;;;;;;;1.50;0.90;;;;;;;;;;4937337;28;20030;-87
2021/12/02 11:45:23;;;;;;;1.20;0.60;;;;;;;;;;4935558;28;20533;-86
2021/12/02 11:47:49;;;;;;;3.70;1.00;;;;;;;;;;4958286;28;20475;-85
2021/12/02 11:50:16;;;;;;;2.28;0.68;;;;;;;;;;4935644;28;20061;-88
2021/12/02 11:52:42;;;;;;;7.20;1.13;;;;;;;;;;4943902;28;20462;-86
2021/12/02 11:55:10;;;;;;;3.63;0.98;;;;;;;;;;4937148;28;20035;-86
2021/12/02 11:57:36;;;;;;;7.88;3.15;;;;;;;;;;4954195;28;20057;-86
2021/12/02 12:00:05;;;;;;;6.72;2.95;;;;;;;;;;4935718;28;20491;-86
2021/12/02 12:02:31;;;;;;;8.80;2.60;;;;;;;;;;4942316;28;20411;-86
2021/12/02 12:05:03;;;;;;;8.48;3.10;;;;;;;;;;4941129;28;20341;-86
2021/12/02 12:07:42;;;;;;;9.48;4.03;;;;;;;;;;4960332;28;20054;-85
2021/12/02 12:10:13;;;;;;;9.35;3.47;;;;;;;;;;4954609;28;20050;-86
2021/12/02 12:12:42;;;;;;;4.38;1.42;;;;;;;;;;4958690;28;20414;-86
2021/12/02 12:15:27;;;;;;;7.80;1.45;;;;;;;;;;4950244;28;20470;-84
2021/12/02 12:17:53;;;;;;;10.90;2.40;;;;;;;;;;4942531;28;21120;-86
2021/12/02 12:20:19;;;;;;;2.88;1.58;;;;;;;;;;4945296;28;20475;-87
2021/12/02 12:22:45;;;;;;;4.03;0.85;;;;;;;;;;4949516;28;20039;-86
2021/12/02 12:25:11;;;;;;;2.53;0.57;;;;;;;;;;4942018;28;20518;-85
2021/12/02 12:27:38;;;;;;;0.52;0.40;;;;;;;;;;4938664;28;20038;-86
2021/12/02 12:30:09;;;;;;;0.70;0.25;;;;;;;;;;4945997;28;20342;-86
2021/12/02 12:35:20;;;;;;;0.45;0.43;;;;;;;;;;4959146;28;20499;-85
2021/12/02 12:37:51;;;;;;;0.60;0.35;;;;;;;;;;4941602;28;20023;-85
2021/12/02 12:40:23;;;;;;;3.38;0.93;;;;;;;;;;4941826;28;20196;-87
2021/12/02 12:42:52;;;;;;;42.95;3.20;;;;;;;;;;4938666;28;20590;-86
2021/12/02 12:45:26;;;;;;;0.50;0.50;;;;;;;;;;4941281;28;20035;-86
2021/12/02 12:47:54;;;;;;;7.93;0.95;;;;;;;;;;4954924;28;20037;-86
2021/12/02 12:50:29;;;;;;;16.77;1.70;;;;;;;;;;4943204;28;20034;-85
2021/12/02 12:53:04;;;;;;;4.43;0.70;;;;;;;;;;4948818;28;20136;-86
2021/12/02 12:55:35;;;;;;;0.63;0.30;;;;;;;;;;4951546;28;20088;-87
2021/12/02 12:58:08;;;;;;;5.63;1.10;;;;;;;;;;4957450;28;20019;-86
2021/12/02 13:00:45;;;;;;;0.40;0.40;;;;;;;;;;4949111;28;20437;-86
2021/12/02 13:03:20;;;;;;;1.40;0.63;;;;;;;;;;4954605;28;20043;-90
2021/12/02 13:06:02;;;;;;;0.63;0.60;;;;;;;;;;4962020;28;20097;-85
2021/12/02 13:08:37;;;;;;;9.40;0.85;;;;;;;;;;4942561;28;20034;-87
2021/12/02 13:11:11;;;;;;;0.50;0.50;;;;;;;;;;4951388;28;20487;-87
2021/12/02 13:13:38;;;;;;;97.28;6.18;;;;;;;;;;4956458;28;20549;-87
2021/12/02 13:16:10;;;;;;;18.40;1.52;;;;;;;;;;4936225;28;20031;-87
2021/12/02 13:18:42;;;;;;;140.95;11.60;;;;;;;;;;4942898;28;20450;-85
2021/12/02 13:21:33;;;;;;;30.75;3.55;;;;;;;;;;4943322;28;20034;-85
2021/12/02 13:23:59;;;;;;;2.92;0.65;;;;;;;;;;4937171;28;20039;-86
2021/12/02 13:26:30;;;;;;;4.88;0.90;;;;;;;;;;4942772;28;20034;-85
2021/12/02 13:29:04;;;;;;;1.50;0.60;;;;;;;;;;4946833;28;20027;-85
2021/12/02 13:31:31;;;;;;;1.95;0.43;;;;;;;;;;4941745;28;20414;-86
2021/12/02 13:34:17;;;;;;;0.75;0.32;;;;;;;;;;4939775;28;20118;-87
2021/12/02 13:36:46;;;;;;;2.40;1.15;;;;;;;;;;4958086;28;20035;-86
2021/12/02 13:39:19;;;;;;;1.52;0.50;;;;;;;;;;4938951;28;20082;-85
2021/12/02 13:41:51;;;;;;;6.18;0.60;;;;;;;;;;4942593;28;20042;-85
2021/12/02 13:44:21;;;;;;;1.70;0.50;;;;;;;;;;4935991;28;20113;-85
2021/12/02 13:46:49;;;;;;;0.57;0.40;;;;;;;;;;4945405;28;20167;-84
2021/12/02 13:49:19;;;;;;;5.25;0.90;;;;;;;;;;4937864;28;20038;-85
2021/12/02 13:54:51;;;;;;;3.35;0.85;;;;;;;;;;4934299;28;20487;-86
2021/12/02 13:57:42;;;;;;;1.33;0.70;;;;;;;;;;4955656;28;20320;-85
2021/12/02 14:00:12;;;;;;;4.50;1.05;;;;;;;;;;4946838;28;20553;-85
2021/12/02 14:02:38;;;;;;;2.10;1.05;;;;;;;;;;4940262;28;20034;-84
2021/12/02 14:05:06;;;;;;;4.00;0.90;;;;;;;;;;4955921;28;20038;-85
2021/12/02 14:07:34;;;;;;;1.20;0.55;;;;;;;;;;4936800;28;20070;-86
2021/12/02 14:10:01;;;;;;;3.15;0.43;;;;;;;;;;4943909;28;20041;-85
2021/12/02 14:12:37;;;;;;;11.55;1.00;;;;;;;;;;4951911;28;20065;-85
2021/12/02 14:15:02;;;;;;;;;;;;;;;;;;4959908;28;20035;-85
2021/12/02 14:17:30;;;;;;;5.90;1.10;;;;;;;;;;4957361;28;20342;-85
2021/12/02 14:20:08;;;;;;;7.22;0.88;;;;;;;;;;4957541;28;20495;-85
2021/12/02 14:22:38;;;;;;;1.50;1.00;;;;;;;;;;4958859;28;20093;-85
2021/12/02 14:25:06;;;;;;;2.92;1.10;;;;;;;;;;4953494;28;20031;-84
2021/12/02 14:27:32;;;;;;;6.80;2.08;;;;;;;;;;4943837;28;20033;-85
2021/12/02 14:30:12;;;;;;;6.25;2.55;;;;;;;;;;4937484;28;20035;-86
2021/12/02 14:32:39;;;;;;;5.38;1.40;;;;;;;;;;4957453;28;20030;-86
2021/12/02 14:35:10;;;;;;;9.65;3.13;;;;;;;;;;4955093;28;20368;-85
2021/12/02 14:37:37;;;;;;;11.38;4.05;;;;;;;;;;4959224;28;20505;-85
2021/12/02 14:40:03;;;;;;;4.38;1.15;;;;;;;;;;4958739;28;20581;-85
2021/12/02 14:42:29;;;;;;;5.03;1.42;;;;;;;;;;4957717;28;20508;-86
2021/12/02 14:44:55;;;;;;;1.60;0.77;;;;;;;;;;4951326;28;20133;-85
2021/12/02 14:47:21;;;;;;;3.05;1.05;;;;;;;;;;4943009;28;20043;-86
2021/12/02 14:49:49;;;;;;;3.85;1.02;;;;;;;;;;4952741;28;20039;-85
2021/12/02 14:52:17;;;;;;;5.43;1.05;;;;;;;;;;4958906;28;20028;-87
2021/12/02 14:54:43;;;;;;;3.25;1.45;;;;;;;;;;4951613;28;20054;-86
2021/12/02 14:57:12;;;;;;;5.72;1.13;;;;;;;;;;4943998;28;20483;-85
2021/12/02 14:59:43;;;;;;;4.13;0.88;;;;;;;;;;4934561;28;20065;-86
2021/12/02 15:02:09;;;;;;;2.63;1.08;;;;;;;;;;4939970;28;20045;-85
2021/12/02 15:04:44;;;;;;;3.58;1.00;;;;;;;;;;4956885;28;20524;-85
2021/12/02 15:07:19;;;;;;;3.47;0.95;;;;;;;;;;4939794;28;20081;-85
2021/12/02 15:09:47;;;;;;;4.07;1.65;;;;;;;;;;4934415;28;20033;-84
2021/12/02 15:12:15;;;;;;;5.07;1.15;;;;;;;;;;4935948;28;20122;-85